CTN553 LDOS-EDDM
Flight info
| Callsign | CTN553 |
|---|---|
| Flight time | 1h 14m |
| Altitude | 38000 |
| Route | BAREB DCT AMADI Q113 NAPSA NAPSA1B |
| Aircraft | A320/M-SDE3FGHIRWY/LB1 |
Departure
| Time | 2026-05-07 02:48 |
|---|---|
| Airport | Osijek Airport (LDOS) |
Arrival
| Time | 2026-05-07 04:03 |
|---|---|
| Airport | Munich Airport (EDDM) |
| Time | Latitude | Longitude | Altitude | Speed | Heading |
|---|---|---|---|---|---|
| 2026-05-07 02:44 | 45.46547 | 18.80678 | 303 ft | 0 kts | 40° |
| 2026-05-07 02:44 | 45.46549 | 18.80733 | 300 ft | 14 kts | 108° |
| 2026-05-07 02:44 | 45.46470 | 18.80814 | 300 ft | 15 kts | 174° |
| 2026-05-07 02:45 | 45.46359 | 18.80788 | 299 ft | 17 kts | 179° |
| 2026-05-07 02:45 | 45.46302 | 18.80898 | 301 ft | 14 kts | 113° |
| 2026-05-07 02:45 | 45.46264 | 18.81037 | 302 ft | 16 kts | 111° |
| 2026-05-07 02:45 | 45.46221 | 18.81190 | 302 ft | 17 kts | 113° |
| 2026-05-07 02:46 | 45.46168 | 18.81356 | 302 ft | 20 kts | 116° |
| 2026-05-07 02:46 | 45.46115 | 18.81547 | 301 ft | 21 kts | 109° |
| 2026-05-07 02:46 | 45.46067 | 18.81762 | 301 ft | 24 kts | 107° |
| 2026-05-07 02:46 | 45.46016 | 18.81998 | 297 ft | 26 kts | 107° |
| 2026-05-07 02:47 | 45.45955 | 18.82248 | 298 ft | 27 kts | 110° |
| 2026-05-07 02:47 | 45.45891 | 18.82503 | 301 ft | 28 kts | 109° |
| 2026-05-07 02:47 | 45.45862 | 18.82608 | 302 ft | 4 kts | 195° |
| 2026-05-07 02:47 | 45.45858 | 18.82583 | 303 ft | 3 kts | 276° |
| 2026-05-07 02:48 | 45.45908 | 18.82361 | 300 ft | 65 kts | 289° |
| 2026-05-07 02:48 | 45.46160 | 18.81354 | 301 ft | 149 kts | 290° |
| 2026-05-07 02:48 | 45.46594 | 18.79692 | 499 ft | 195 kts | 288° |
| 2026-05-07 02:48 | 45.46965 | 18.77816 | 1530 ft | 195 kts | 288° |
| 2026-05-07 02:49 | 45.47780 | 18.76350 | 2477 ft | 192 kts | 329° |
| 2026-05-07 02:49 | 45.49024 | 18.75816 | 3404 ft | 184 kts | 349° |
| 2026-05-07 02:49 | 45.50257 | 18.75800 | 4316 ft | 171 kts | 3° |
| 2026-05-07 02:49 | 45.51361 | 18.76127 | 5221 ft | 150 kts | 8° |
| 2026-05-07 02:50 | 45.52297 | 18.76347 | 5836 ft | 134 kts | 356° |
| 2026-05-07 02:50 | 45.53362 | 18.75989 | 5738 ft | 178 kts | 321° |
| 2026-05-07 02:50 | 45.54075 | 18.74683 | 6774 ft | 167 kts | 301° |
| 2026-05-07 02:50 | 45.54942 | 18.73562 | 7691 ft | 176 kts | 340° |
| 2026-05-07 02:51 | 45.56148 | 18.73696 | 8648 ft | 179 kts | 28° |
| 2026-05-07 02:51 | 45.57194 | 18.74640 | 9553 ft | 180 kts | 32° |
| 2026-05-07 02:51 | 45.58278 | 18.75651 | 9995 ft | 197 kts | 33° |
| 2026-05-07 02:51 | 45.59515 | 18.76803 | 10023 ft | 228 kts | 33° |
| 2026-05-07 02:52 | 45.60956 | 18.78144 | 10018 ft | 267 kts | 33° |
| 2026-05-07 02:52 | 45.62729 | 18.79332 | 10008 ft | 293 kts | 8° |
| 2026-05-07 02:52 | 45.64745 | 18.79106 | 10005 ft | 294 kts | 335° |
| 2026-05-07 02:52 | 45.66352 | 18.77406 | 10006 ft | 288 kts | 303° |
| 2026-05-07 02:53 | 45.67111 | 18.74867 | 10471 ft | 268 kts | 280° |
| 2026-05-07 02:53 | 45.67448 | 18.72357 | 11779 ft | 250 kts | 277° |
| 2026-05-07 02:53 | 45.67764 | 18.69931 | 12753 ft | 247 kts | 277° |
| 2026-05-07 02:53 | 45.68078 | 18.67521 | 13570 ft | 248 kts | 277° |
| 2026-05-07 02:54 | 45.68394 | 18.65076 | 14282 ft | 251 kts | 277° |
| 2026-05-07 02:54 | 45.68851 | 18.62646 | 14947 ft | 255 kts | 285° |
| 2026-05-07 02:54 | 45.69465 | 18.60240 | 15608 ft | 259 kts | 287° |
| 2026-05-07 02:54 | 45.70136 | 18.57828 | 16254 ft | 263 kts | 288° |
| 2026-05-07 02:55 | 45.70825 | 18.55388 | 16899 ft | 266 kts | 288° |
| 2026-05-07 02:55 | 45.71516 | 18.52909 | 17551 ft | 270 kts | 287° |
| 2026-05-07 02:55 | 45.72201 | 18.50396 | 18202 ft | 273 kts | 287° |
| 2026-05-07 02:55 | 45.72885 | 18.47849 | 18764 ft | 275 kts | 287° |
| 2026-05-07 02:56 | 45.73571 | 18.45277 | 19339 ft | 278 kts | 287° |
| 2026-05-07 02:56 | 45.74259 | 18.42685 | 19914 ft | 280 kts | 287° |
| 2026-05-07 02:56 | 45.75142 | 18.40178 | 20469 ft | 286 kts | 300° |
| 2026-05-07 02:56 | 45.76258 | 18.37796 | 21012 ft | 290 kts | 300° |
| 2026-05-07 02:57 | 45.77393 | 18.35390 | 21577 ft | 292 kts | 300° |
| 2026-05-07 02:57 | 45.78536 | 18.32968 | 22108 ft | 296 kts | 300° |
| 2026-05-07 02:57 | 45.79692 | 18.30514 | 22666 ft | 299 kts | 300° |
| 2026-05-07 02:57 | 45.80860 | 18.28027 | 23197 ft | 302 kts | 300° |
| 2026-05-07 02:58 | 45.82036 | 18.25513 | 23703 ft | 305 kts | 300° |
| 2026-05-07 02:58 | 45.83223 | 18.22971 | 24145 ft | 308 kts | 300° |
| 2026-05-07 02:58 | 45.84421 | 18.20406 | 24599 ft | 311 kts | 300° |
| 2026-05-07 02:58 | 45.85623 | 18.17823 | 25043 ft | 313 kts | 299° |
| 2026-05-07 02:59 | 45.86839 | 18.15203 | 25496 ft | 316 kts | 299° |
| 2026-05-07 02:59 | 45.88061 | 18.12574 | 25934 ft | 319 kts | 299° |
| 2026-05-07 02:59 | 45.89297 | 18.09913 | 26360 ft | 321 kts | 299° |
| 2026-05-07 02:59 | 45.90541 | 18.07237 | 26809 ft | 324 kts | 298° |
| 2026-05-07 03:00 | 45.91798 | 18.04532 | 27230 ft | 327 kts | 298° |
| 2026-05-07 03:00 | 45.93062 | 18.01806 | 27663 ft | 330 kts | 298° |
| 2026-05-07 03:00 | 45.94321 | 17.99090 | 28066 ft | 332 kts | 298° |
| 2026-05-07 03:00 | 45.95624 | 17.96275 | 28461 ft | 335 kts | 298° |
| 2026-05-07 03:01 | 45.96921 | 17.93472 | 28866 ft | 338 kts | 297° |
| 2026-05-07 03:01 | 45.98226 | 17.90648 | 29261 ft | 341 kts | 297° |
| 2026-05-07 03:01 | 45.99523 | 17.87829 | 29632 ft | 344 kts | 297° |
| 2026-05-07 03:01 | 46.00850 | 17.84943 | 30028 ft | 347 kts | 297° |
| 2026-05-07 03:02 | 46.02204 | 17.82002 | 30372 ft | 349 kts | 297° |
| 2026-05-07 03:02 | 46.03530 | 17.79126 | 30748 ft | 350 kts | 297° |
| 2026-05-07 03:02 | 46.04878 | 17.76203 | 31152 ft | 350 kts | 297° |
| 2026-05-07 03:02 | 46.06225 | 17.73277 | 31539 ft | 351 kts | 297° |
| 2026-05-07 03:03 | 46.07572 | 17.70342 | 31945 ft | 352 kts | 297° |
| 2026-05-07 03:03 | 46.08920 | 17.67402 | 32350 ft | 352 kts | 297° |
| 2026-05-07 03:03 | 46.10271 | 17.64448 | 32738 ft | 353 kts | 297° |
| 2026-05-07 03:03 | 46.11625 | 17.61487 | 33126 ft | 354 kts | 297° |
| 2026-05-07 03:04 | 46.12982 | 17.58517 | 33505 ft | 355 kts | 296° |
| 2026-05-07 03:04 | 46.14343 | 17.55533 | 33862 ft | 357 kts | 296° |
| 2026-05-07 03:04 | 46.15704 | 17.52542 | 34178 ft | 358 kts | 296° |
| 2026-05-07 03:04 | 46.17074 | 17.49525 | 34460 ft | 360 kts | 296° |
| 2026-05-07 03:05 | 46.18452 | 17.46489 | 34701 ft | 363 kts | 296° |
| 2026-05-07 03:05 | 46.19842 | 17.43428 | 34949 ft | 365 kts | 296° |
| 2026-05-07 03:05 | 46.21238 | 17.40356 | 35198 ft | 368 kts | 296° |
| 2026-05-07 03:05 | 46.22644 | 17.37257 | 35441 ft | 370 kts | 296° |
| 2026-05-07 03:06 | 46.24056 | 17.34139 | 35653 ft | 372 kts | 296° |
| 2026-05-07 03:06 | 46.25478 | 17.30993 | 35874 ft | 375 kts | 296° |
| 2026-05-07 03:06 | 46.26905 | 17.27837 | 36096 ft | 377 kts | 297° |
| 2026-05-07 03:06 | 46.28342 | 17.24662 | 36315 ft | 379 kts | 296° |
| 2026-05-07 03:07 | 46.29783 | 17.21469 | 36530 ft | 380 kts | 296° |
| 2026-05-07 03:07 | 46.31229 | 17.18255 | 36722 ft | 382 kts | 296° |
| 2026-05-07 03:07 | 46.32683 | 17.15020 | 36907 ft | 385 kts | 296° |
| 2026-05-07 03:07 | 46.34145 | 17.11764 | 37099 ft | 386 kts | 296° |
| 2026-05-07 03:08 | 46.35609 | 17.08497 | 37282 ft | 388 kts | 296° |
| 2026-05-07 03:08 | 46.37077 | 17.05208 | 37476 ft | 389 kts | 296° |
| 2026-05-07 03:08 | 46.38552 | 17.01909 | 37665 ft | 391 kts | 296° |
| 2026-05-07 03:08 | 46.40032 | 16.98600 | 37866 ft | 392 kts | 296° |
| 2026-05-07 03:09 | 46.43010 | 16.91930 | 37961 ft | 395 kts | 296° |
| 2026-05-07 03:09 | 46.45991 | 16.85244 | 37952 ft | 395 kts | 296° |
| 2026-05-07 03:10 | 46.48955 | 16.78582 | 37956 ft | 395 kts | 296° |
| 2026-05-07 03:10 | 46.51922 | 16.71894 | 37957 ft | 395 kts | 296° |
| 2026-05-07 03:11 | 46.54889 | 16.65182 | 37949 ft | 396 kts | 296° |
| 2026-05-07 03:11 | 46.57857 | 16.58436 | 37949 ft | 396 kts | 296° |
| 2026-05-07 03:12 | 46.60809 | 16.51729 | 37944 ft | 397 kts | 296° |
| 2026-05-07 03:12 | 46.63795 | 16.44916 | 37946 ft | 397 kts | 296° |
| 2026-05-07 03:13 | 46.66762 | 16.38141 | 37944 ft | 397 kts | 295° |
| 2026-05-07 03:13 | 46.69727 | 16.31338 | 37941 ft | 397 kts | 295° |
| 2026-05-07 03:14 | 46.72696 | 16.24537 | 37940 ft | 398 kts | 295° |
| 2026-05-07 03:15 | 46.77133 | 16.14322 | 37939 ft | 398 kts | 295° |
| 2026-05-07 03:15 | 46.80083 | 16.07495 | 37951 ft | 398 kts | 295° |
| 2026-05-07 03:16 | 46.83029 | 16.00670 | 37943 ft | 398 kts | 295° |
| 2026-05-07 03:16 | 46.85975 | 15.93838 | 37939 ft | 397 kts | 295° |
| 2026-05-07 03:17 | 46.88909 | 15.87012 | 37949 ft | 396 kts | 295° |
| 2026-05-07 03:17 | 46.91834 | 15.80185 | 37943 ft | 396 kts | 295° |
| 2026-05-07 03:18 | 46.94751 | 15.73360 | 37943 ft | 395 kts | 295° |
| 2026-05-07 03:18 | 46.97651 | 15.66568 | 37948 ft | 395 kts | 295° |
| 2026-05-07 03:19 | 47.00565 | 15.59714 | 37955 ft | 395 kts | 295° |
| 2026-05-07 03:19 | 47.03465 | 15.52888 | 37957 ft | 395 kts | 294° |
| 2026-05-07 03:20 | 47.06368 | 15.46040 | 37958 ft | 395 kts | 294° |
| 2026-05-07 03:20 | 47.09259 | 15.39183 | 37953 ft | 395 kts | 294° |
| 2026-05-07 03:21 | 47.12157 | 15.32310 | 37956 ft | 395 kts | 294° |
| 2026-05-07 03:21 | 47.15040 | 15.25446 | 37951 ft | 395 kts | 294° |
| 2026-05-07 03:22 | 47.17927 | 15.18560 | 37955 ft | 396 kts | 294° |
| 2026-05-07 03:22 | 47.20809 | 15.11654 | 37965 ft | 396 kts | 294° |
| 2026-05-07 03:23 | 47.23687 | 15.04732 | 37971 ft | 397 kts | 294° |
| 2026-05-07 03:23 | 47.26574 | 14.97791 | 37977 ft | 398 kts | 294° |
| 2026-05-07 03:24 | 47.29445 | 14.90893 | 37982 ft | 398 kts | 294° |
| 2026-05-07 03:24 | 47.32353 | 14.83882 | 37980 ft | 399 kts | 294° |
| 2026-05-07 03:25 | 47.35228 | 14.76900 | 37979 ft | 399 kts | 294° |
| 2026-05-07 03:25 | 47.38115 | 14.69874 | 37979 ft | 401 kts | 294° |
| 2026-05-07 03:26 | 47.41024 | 14.62788 | 37979 ft | 406 kts | 294° |
| 2026-05-07 03:26 | 47.43953 | 14.55642 | 37984 ft | 408 kts | 294° |
| 2026-05-07 03:27 | 47.46886 | 14.48457 | 37982 ft | 409 kts | 294° |
| 2026-05-07 03:27 | 47.49825 | 14.41245 | 37990 ft | 409 kts | 295° |
| 2026-05-07 03:28 | 47.52762 | 14.34026 | 37988 ft | 409 kts | 295° |
| 2026-05-07 03:28 | 47.55691 | 14.26810 | 37987 ft | 408 kts | 295° |
| 2026-05-07 03:29 | 47.58119 | 14.20808 | 37995 ft | 408 kts | 295° |
| 2026-05-07 03:29 | 47.61025 | 14.13592 | 37991 ft | 408 kts | 295° |
| 2026-05-07 03:30 | 47.64393 | 14.05213 | 37998 ft | 407 kts | 295° |
| 2026-05-07 03:30 | 47.66817 | 13.99168 | 37997 ft | 406 kts | 295° |
| 2026-05-07 03:31 | 47.69700 | 13.91961 | 38001 ft | 406 kts | 295° |
| 2026-05-07 03:31 | 47.72572 | 13.84757 | 38002 ft | 405 kts | 295° |
| 2026-05-07 03:32 | 47.75441 | 13.77537 | 38000 ft | 405 kts | 295° |
| 2026-05-07 03:32 | 47.78298 | 13.70328 | 37999 ft | 404 kts | 295° |
| 2026-05-07 03:33 | 47.81154 | 13.63123 | 38003 ft | 405 kts | 295° |
| 2026-05-07 03:33 | 47.84011 | 13.55904 | 38006 ft | 405 kts | 295° |
| 2026-05-07 03:34 | 47.86867 | 13.48656 | 38003 ft | 406 kts | 295° |
| 2026-05-07 03:34 | 47.89697 | 13.41453 | 37996 ft | 406 kts | 295° |
| 2026-05-07 03:35 | 47.92572 | 13.34109 | 38002 ft | 407 kts | 295° |
| 2026-05-07 03:35 | 47.95422 | 13.26802 | 38001 ft | 406 kts | 295° |
| 2026-05-07 03:35 | 47.96822 | 13.23217 | 38003 ft | 394 kts | 294° |
| 2026-05-07 03:36 | 47.98161 | 13.19799 | 38008 ft | 379 kts | 294° |
| 2026-05-07 03:36 | 47.99482 | 13.16420 | 38004 ft | 363 kts | 294° |
| 2026-05-07 03:36 | 48.00710 | 13.13270 | 37998 ft | 348 kts | 294° |
| 2026-05-07 03:36 | 48.01892 | 13.10221 | 37995 ft | 332 kts | 292° |
| 2026-05-07 03:37 | 48.02926 | 13.07212 | 37662 ft | 321 kts | 285° |
| 2026-05-07 03:37 | 48.03592 | 13.04041 | 36798 ft | 321 kts | 270° |
| 2026-05-07 03:37 | 48.03566 | 13.00746 | 35871 ft | 317 kts | 248° |
| 2026-05-07 03:37 | 48.02548 | 12.97938 | 35230 ft | 305 kts | 218° |
| 2026-05-07 03:38 | 48.00690 | 12.96575 | 34782 ft | 301 kts | 187° |
| 2026-05-07 03:38 | 47.98632 | 12.97122 | 34441 ft | 311 kts | 156° |
| 2026-05-07 03:38 | 47.97049 | 12.99413 | 34030 ft | 334 kts | 126° |
| 2026-05-07 03:38 | 47.96443 | 13.02870 | 33395 ft | 364 kts | 95° |
| 2026-05-07 03:39 | 47.97097 | 13.06604 | 32743 ft | 386 kts | 63° |
| 2026-05-07 03:39 | 47.98932 | 13.09554 | 32203 ft | 392 kts | 30° |
| 2026-05-07 03:39 | 48.01446 | 13.10883 | 31741 ft | 381 kts | 358° |
| 2026-05-07 03:39 | 48.03974 | 13.10331 | 31205 ft | 357 kts | 324° |
| 2026-05-07 03:40 | 48.05826 | 13.08180 | 30613 ft | 325 kts | 291° |
| 2026-05-07 03:40 | 48.06525 | 13.05226 | 30051 ft | 288 kts | 257° |
| 2026-05-07 03:40 | 48.05971 | 13.02612 | 29503 ft | 259 kts | 223° |
| 2026-05-07 03:40 | 48.04501 | 13.01286 | 28991 ft | 251 kts | 189° |
| 2026-05-07 03:41 | 48.02769 | 13.01803 | 28429 ft | 271 kts | 154° |
| 2026-05-07 03:41 | 48.01513 | 13.04064 | 27816 ft | 306 kts | 119° |
| 2026-05-07 03:41 | 48.01326 | 13.07354 | 27287 ft | 337 kts | 83° |
| 2026-05-07 03:41 | 48.02411 | 13.10526 | 26767 ft | 355 kts | 48° |
| 2026-05-07 03:42 | 48.04307 | 13.12970 | 25989 ft | 369 kts | 34° |
| 2026-05-07 03:42 | 48.06648 | 13.14754 | 24873 ft | 389 kts | 19° |
| 2026-05-07 03:42 | 48.09350 | 13.15935 | 23258 ft | 421 kts | 6° |
| 2026-05-07 03:42 | 48.12293 | 13.15830 | 22218 ft | 420 kts | 339° |
| 2026-05-07 03:43 | 48.14809 | 13.14001 | 22067 ft | 389 kts | 314° |
| 2026-05-07 03:43 | 48.16496 | 13.11085 | 21558 ft | 363 kts | 291° |
| 2026-05-07 03:43 | 48.17344 | 13.07487 | 20008 ft | 374 kts | 273° |
| 2026-05-07 03:43 | 48.17220 | 13.03481 | 18562 ft | 404 kts | 255° |
| 2026-05-07 03:44 | 48.16550 | 12.99203 | 17115 ft | 439 kts | 255° |
| 2026-05-07 03:44 | 48.15856 | 12.94826 | 17815 ft | 414 kts | 254° |
| 2026-05-07 03:44 | 48.15237 | 12.90857 | 19209 ft | 370 kts | 253° |
| 2026-05-07 03:44 | 48.14676 | 12.87245 | 19897 ft | 354 kts | 252° |
| 2026-05-07 03:45 | 48.14006 | 12.83593 | 19351 ft | 374 kts | 250° |
| 2026-05-07 03:45 | 48.13187 | 12.79804 | 18836 ft | 392 kts | 249° |
| 2026-05-07 03:45 | 48.12234 | 12.75953 | 18343 ft | 406 kts | 246° |
| 2026-05-07 03:45 | 48.11175 | 12.71978 | 17840 ft | 418 kts | 248° |
| 2026-05-07 03:46 | 48.10260 | 12.67792 | 17419 ft | 425 kts | 251° |
| 2026-05-07 03:46 | 48.09513 | 12.63570 | 16918 ft | 416 kts | 257° |
| 2026-05-07 03:46 | 48.09048 | 12.59332 | 16390 ft | 410 kts | 264° |
| 2026-05-07 03:46 | 48.08965 | 12.55132 | 16183 ft | 391 kts | 268° |
| 2026-05-07 03:47 | 48.08942 | 12.51267 | 16021 ft | 351 kts | 268° |
| 2026-05-07 03:47 | 48.08928 | 12.47808 | 15616 ft | 316 kts | 268° |
| 2026-05-07 03:47 | 48.08915 | 12.44677 | 15427 ft | 288 kts | 268° |
| 2026-05-07 03:47 | 48.08903 | 12.41816 | 15470 ft | 261 kts | 268° |
| 2026-05-07 03:48 | 48.08892 | 12.39235 | 15744 ft | 235 kts | 267° |
| 2026-05-07 03:48 | 48.08886 | 12.36885 | 15871 ft | 221 kts | 269° |
| 2026-05-07 03:48 | 48.08881 | 12.34601 | 15769 ft | 219 kts | 265° |
| 2026-05-07 03:48 | 48.08777 | 12.32334 | 15645 ft | 218 kts | 264° |
| 2026-05-07 03:49 | 48.08659 | 12.30070 | 15520 ft | 218 kts | 263° |
| 2026-05-07 03:49 | 48.08541 | 12.27824 | 15397 ft | 217 kts | 264° |
| 2026-05-07 03:49 | 48.08423 | 12.25570 | 15279 ft | 217 kts | 264° |
| 2026-05-07 03:49 | 48.08312 | 12.23328 | 15160 ft | 216 kts | 266° |
| 2026-05-07 03:50 | 48.08619 | 12.21163 | 15038 ft | 219 kts | 289° |
| 2026-05-07 03:50 | 48.09274 | 12.19103 | 14916 ft | 220 kts | 296° |
| 2026-05-07 03:50 | 48.10068 | 12.17138 | 14796 ft | 220 kts | 298° |
| 2026-05-07 03:50 | 48.10816 | 12.15369 | 14700 ft | 220 kts | 298° |
| 2026-05-07 03:51 | 48.11635 | 12.13440 | 14588 ft | 219 kts | 298° |
| 2026-05-07 03:51 | 48.12527 | 12.11586 | 14471 ft | 220 kts | 306° |
| 2026-05-07 03:51 | 48.13531 | 12.09855 | 14367 ft | 220 kts | 307° |
| 2026-05-07 03:51 | 48.14549 | 12.08152 | 14260 ft | 219 kts | 307° |
| 2026-05-07 03:52 | 48.15568 | 12.06455 | 14161 ft | 219 kts | 307° |
| 2026-05-07 03:52 | 48.16584 | 12.04768 | 14059 ft | 218 kts | 307° |
| 2026-05-07 03:52 | 48.17600 | 12.03085 | 13962 ft | 217 kts | 307° |
| 2026-05-07 03:52 | 48.18614 | 12.01411 | 13862 ft | 217 kts | 307° |
| 2026-05-07 03:53 | 48.19633 | 11.99752 | 13764 ft | 217 kts | 310° |
| 2026-05-07 03:53 | 48.20833 | 11.98356 | 13651 ft | 220 kts | 321° |
| 2026-05-07 03:53 | 48.22195 | 11.97261 | 13533 ft | 225 kts | 334° |
| 2026-05-07 03:53 | 48.23714 | 11.96630 | 13410 ft | 229 kts | 343° |
| 2026-05-07 03:54 | 48.25313 | 11.96428 | 13284 ft | 233 kts | 356° |
| 2026-05-07 03:54 | 48.26926 | 11.96783 | 13161 ft | 239 kts | 15° |
| 2026-05-07 03:54 | 48.28464 | 11.97756 | 13053 ft | 240 kts | 21° |
| 2026-05-07 03:54 | 48.29985 | 11.98767 | 12904 ft | 238 kts | 18° |
| 2026-05-07 03:55 | 48.31579 | 11.99480 | 12891 ft | 241 kts | 5° |
| 2026-05-07 03:55 | 48.33279 | 11.99956 | 12465 ft | 258 kts | 7° |
| 2026-05-07 03:55 | 48.35075 | 12.00561 | 11640 ft | 267 kts | 10° |
| 2026-05-07 03:55 | 48.36853 | 12.01242 | 10815 ft | 267 kts | 12° |
| 2026-05-07 03:56 | 48.38662 | 12.01981 | 10018 ft | 266 kts | 13° |
| 2026-05-07 03:56 | 48.40347 | 12.03005 | 9245 ft | 264 kts | 25° |
| 2026-05-07 03:56 | 48.41924 | 12.04534 | 8293 ft | 273 kts | 36° |
| 2026-05-07 03:56 | 48.43340 | 12.06551 | 7284 ft | 286 kts | 46° |
| 2026-05-07 03:57 | 48.44479 | 12.09044 | 6476 ft | 291 kts | 64° |
| 2026-05-07 03:57 | 48.44763 | 12.11926 | 6036 ft | 269 kts | 101° |
| 2026-05-07 03:57 | 48.43981 | 12.14206 | 5709 ft | 236 kts | 144° |
| 2026-05-07 03:57 | 48.42614 | 12.14976 | 5506 ft | 195 kts | 192° |
| 2026-05-07 03:58 | 48.41557 | 12.14108 | 5189 ft | 168 kts | 241° |
| 2026-05-07 03:58 | 48.41298 | 12.12435 | 4608 ft | 170 kts | 274° |
| 2026-05-07 03:58 | 48.41379 | 12.10476 | 3877 ft | 207 kts | 267° |
| 2026-05-07 03:58 | 48.41010 | 12.08219 | 3157 ft | 239 kts | 244° |
| 2026-05-07 03:59 | 48.39818 | 12.06298 | 2643 ft | 264 kts | 220° |
| 2026-05-07 03:59 | 48.38371 | 12.04568 | 2697 ft | 272 kts | 223° |
| 2026-05-07 03:59 | 48.37039 | 12.02574 | 3046 ft | 257 kts | 240° |
| 2026-05-07 03:59 | 48.36587 | 12.00285 | 3581 ft | 208 kts | 267° |
| 2026-05-07 04:00 | 48.36703 | 11.98257 | 3281 ft | 186 kts | 277° |
| 2026-05-07 04:00 | 48.36825 | 11.96394 | 2909 ft | 172 kts | 272° |
| 2026-05-07 04:00 | 48.36852 | 11.94659 | 2648 ft | 157 kts | 267° |
| 2026-05-07 04:00 | 48.36816 | 11.93097 | 2706 ft | 146 kts | 268° |
| 2026-05-07 04:01 | 48.36859 | 11.91596 | 2639 ft | 147 kts | 276° |
| 2026-05-07 04:01 | 48.37041 | 11.90031 | 2464 ft | 155 kts | 274° |
| 2026-05-07 04:01 | 48.37146 | 11.88339 | 2376 ft | 170 kts | 271° |
| 2026-05-07 04:01 | 48.37065 | 11.86561 | 2256 ft | 168 kts | 259° |
| 2026-05-07 04:02 | 48.36885 | 11.84923 | 2007 ft | 151 kts | 263° |
| 2026-05-07 04:02 | 48.36774 | 11.83416 | 1753 ft | 140 kts | 261° |
| 2026-05-07 04:02 | 48.36655 | 11.82008 | 1503 ft | 132 kts | 262° |
| 2026-05-07 04:02 | 48.36565 | 11.80801 | 1459 ft | 86 kts | 262° |
| 2026-05-07 04:03 | 48.36518 | 11.80164 | 1464 ft | 50 kts | 264° |
| 2026-05-07 04:03 | 48.36455 | 11.79708 | 1461 ft | 27 kts | 240° |
| 2026-05-07 04:03 | 48.36403 | 11.79616 | 1464 ft | 0 kts | 225° |
| 2026-05-07 04:04 | 48.36402 | 11.79615 | 1464 ft | 2 kts | 225° |
| 2026-05-07 04:04 | 48.36318 | 11.79464 | 1459 ft | 34 kts | 233° |
| 2026-05-07 04:04 | 48.36158 | 11.79302 | 1468 ft | 28 kts | 182° |
| 2026-05-07 04:04 | 48.35964 | 11.79343 | 1464 ft | 29 kts | 171° |
| 2026-05-07 04:05 | 48.35801 | 11.79426 | 1467 ft | 18 kts | 125° |
| 2026-05-07 04:05 | 48.35722 | 11.79586 | 1460 ft | 17 kts | 120° |
| 2026-05-07 04:05 | 48.35722 | 11.79696 | 1467 ft | 0 kts | 82° |